METAR TAF NOOA PER LA SARDEGNA

Available data for LIEA from the past hour
ALGHERO
Metar
LIEA 181320Z 33006KT 280V020 CAVOK 33/18 Q1014

13:20 UTC

Wind: 330° 6kt

Visibility:

Sky:

Temp: 33 deg C / 91.4 deg F

Dewpoint: 18 deg C / 64.4 deg F

Pressure: 1014 hPa

TAF
TAF LIEA 181100Z 1812/1912 29010KT CAVOK BECMG 1818/1820 VRB04KT BECMG 1910/1912 29010KT
Available data for LIEE from the past hour
CAGLIARI/ELMAS(A
Metar
LIEE 181320Z 16012KT CAVOK 29/22 Q1015

13:20 UTC

Wind: 160° 12kt

Visibility:

Sky:

Temp: 29 deg C / 84.2 deg F

Dewpoint: 22 deg C / 71.6 deg F

Pressure: 1015 hPa

TAF
TAF LIEE 181100Z 1812/1912 16012KT CAVOK BECMG 1818/1820 VRB04KT BECMG 1908/1910 16012KT
Available data for LIEO from the past hour
OLBIA/COSTA SMER
Metar
LIEO 181320Z 09013KT CAVOK 31/20 Q1015

13:20 UTC

Wind: 90° 13kt

Visibility:

Sky:

Temp: 31 deg C / 87.8 deg F

Dewpoint: 20 deg C / 68 deg F

Pressure: 1015 hPa

TAF
TAF LIEO 181100Z 1812/1912 06012KT CAVOK BECMG 1818/1820 VRB04KT BECMG 1908/1910 06012KT
Available data for LIET from the past 2 hours
TORTOLI

PRINCIPALI AEROPORTI ITALIA

Available data for LIBD from the past hour
BARI/PALESE MACC
Metar
LIBD 181320Z 07009KT 040V110 CAVOK 29/15 Q1016

13:20 UTC

Wind: 70° 9kt

Visibility:

Sky:

Temp: 29 deg C / 84.2 deg F

Dewpoint: 15 deg C / 59 deg F

Pressure: 1016 hPa

TAF
TAF LIBD 181100Z 1812/1912 04012KT CAVOK BECMG 1817/1819 VRB04KT BECMG 1909/1911 04012KT
Available data for LICJ from the past hour
PALERMO/POINT RA
Metar
LICJ 181320Z 06016KT 9999 FEW040 30/20 Q1015

13:20 UTC

Wind: 60° 16kt

Visibility: 9999 m

Sky: FEW 4000 ft

Temp: 30 deg C / 86 deg F

Dewpoint: 20 deg C / 68 deg F

Pressure: 1015 hPa

TAF
TAF LICJ 181100Z 1812/1912 02014KT CAVOK BECMG 1820/1822 VRB05KT BECMG 1909/1911 02014KT
ICAO LIRC not found
Available data for LIML from the past 2 hours
MILANO/LINATE
Available data for LIMC from the past hour
MILANO/MALPENSA
Metar
LIMC 181320Z 34004KT 290V030 9999 BKN050 28/16 Q1016 NOSIG

13:20 UTC

Wind: 340° 4kt

Visibility: 9999 m

Sky: BKN 5000 ft

Temp: 28 deg C / 82.4 deg F

Dewpoint: 16 deg C / 60.8 deg F

Pressure: 1016 hPa

TAF
TAF LIMC 181100Z 1812/1918 VRB05KT 9999 SCT050
Available data for LIMF from the past hour
TORINO/CASELLE
Metar
LIMF 181320Z VRB04KT 9999 FEW040 SCT070 28/17 Q1016

13:20 UTC

Wind: ° 4kt

Visibility: 9999 m

Sky: FEW 4000 ft

Temp: 28 deg C / 82.4 deg F

Dewpoint: 17 deg C / 62.6 deg F

Pressure: 1016 hPa

TAF
TAF LIMF 181100Z 1812/1912 VRB05KT 9999 SCT060
Available data for LIMJ from the past hour
GENOVA/SESTRI
Metar
LIMJ 181320Z 18004KT 130V210 9999 FEW024 FEW028TCU 27/21 Q1016

13:20 UTC

Wind: 180° 4kt

Visibility: 9999 m

Sky: FEW 2400 ft

Temp: 27 deg C / 80.6 deg F

Dewpoint: 21 deg C / 69.8 deg F

Pressure: 1016 hPa

TAF
TAF LIMJ 181100Z 1812/1912 VRB05KT 9999 SCT025
Available data for LIRF from the past hour
ROME/FIUMICINO
Metar
LIRF 181320Z 26010KT CAVOK 28/21 Q1016 NOSIG

13:20 UTC

Wind: 260° 10kt

Visibility:

Sky:

Temp: 28 deg C / 82.4 deg F

Dewpoint: 21 deg C / 69.8 deg F

Pressure: 1016 hPa

TAF
TAF LIRF 181100Z 1812/1918 26012KT CAVOK BECMG 1818/1820 VRB04KT TEMPO 1902/1906 0700 BCFG BKN002 BECMG 1910/1912 26012KT
Available data for LIPZ from the past hour
VENEZIA/TESSERA
Metar
LIPZ 181320Z 14006KT 120V180 CAVOK 27/20 Q1015 NOSIG

13:20 UTC

Wind: 140° 6kt

Visibility:

Sky:

Temp: 27 deg C / 80.6 deg F

Dewpoint: 20 deg C / 68 deg F

Pressure: 1015 hPa

TAF
TAF LIPZ 181100Z 1812/1918 15010KT CAVOK BECMG 1816/1819 02008KT BECMG 1908/1911 15010KT BECMG 1916/1918 03008KT

Subscribe US Now